Mengxian, China
Current Conditions -  °F | °C
As of 12:00 PM on Monday 20 Oct 2014 (Local Time) from ZHCC Reporting Station
Light Rain Light Rain  
Wind Chill: 61°   Ceiling: 2000
Heat Index: 61°   Visibility: 0.5mi
Dew Point: 57°   Wind: 7mph
Humidity: 88%   Direction: 310°NW
Pressure: 30.03"   Gusts: NA
Location:  34.9°N, 112.78°E
Report Text: ZHCC 200400Z 31003MPS 290V350 0800 R12/0900V1000N -RAFGOVC020 16/14 Q1017 NOSIG
Loading
Personal Weather Stations






























Interactive Weather Map
Tropical Storm Tracking
New forecast layout! Learn more

10-Day Weather Forecast

Advertisements
Track Severe Weather on mobile